Time;durP1;ratioP1;P1;durP2;ratioP2;P2;SDS_P1;SDS_P2;PMS_P1;PMS_P2;Temp;Humidity;BMP_temperature;BMP_pressure;BME280_temperature;BME280_humidity;BME280_pressure;Samples;Min_cycle;Max_cycle;Signal;HPM_P1;HPM_P2
2021/12/17 00:07:00;;;;;;;49.70;31.67;;;;;;;6.06;100.00;103814.81;5109568;28;20119;-90
2021/12/17 00:09:25;;;;;;;52.40;32.88;;;;;;;6.11;100.00;103820.19;5109930;28;20119;-90
2021/12/17 00:11:51;;;;;;;50.47;33.50;;;;;;;6.12;100.00;103827.25;5109752;28;20377;-90
2021/12/17 00:14:25;;;;;;;54.15;33.90;;;;;;;6.11;100.00;103826.34;5107056;28;20059;-90
2021/12/17 00:16:52;;;;;;;56.25;34.67;;;;;;;6.12;100.00;103820.19;5110445;28;20024;-90
2021/12/17 00:19:27;;;;;;;53.70;34.70;;;;;;;6.06;100.00;103812.19;5108898;28;20463;-91
2021/12/17 00:48:59;;;;;;;72.03;34.97;;;;;;;6.15;100.00;103800.84;5110540;28;20030;-90
2021/12/17 00:51:55;;;;;;;83.00;36.53;;;;;;;6.22;100.00;103810.63;5108882;28;20020;-91
2021/12/17 00:54:30;;;;;;;83.78;36.70;;;;;;;6.24;100.00;103806.25;5108548;28;20107;-90
2021/12/17 00:56:58;;;;;;;90.90;37.60;;;;;;;6.24;100.00;103800.97;5107595;28;20035;-90
2021/12/17 00:59:24;;;;;;;76.03;36.45;;;;;;;6.29;100.00;103811.63;5108843;28;20024;-90
2021/12/17 01:01:51;;;;;;;67.63;37.00;;;;;;;6.28;100.00;103804.56;5093062;28;20121;-90
2021/12/17 01:04:18;;;;;;;72.32;37.47;;;;;;;6.28;100.00;103805.44;5107104;28;20048;-89
2021/12/17 01:06:44;;;;;;;64.57;36.20;;;;;;;6.30;100.00;103808.09;5104584;28;20383;-89
2021/12/17 01:09:12;;;;;;;63.33;35.20;;;;;;;6.26;100.00;103793.94;5088270;28;20020;-89
2021/12/17 01:11:38;;;;;;;66.35;36.28;;;;;;;6.29;100.00;103798.41;5088050;28;20032;-89
2021/12/17 01:14:04;;;;;;;64.18;36.28;;;;;;;6.29;100.00;103793.09;5088781;28;20473;-89
2021/12/17 01:16:30;;;;;;;66.70;36.30;;;;;;;6.29;100.00;103790.47;5088905;28;20190;-87
2021/12/17 01:24:10;;;;;;;71.07;36.95;;;;;;;6.29;100.00;103788.69;5100945;28;20473;-89
2021/12/17 01:42:37;;;;;;;103.90;40.17;;;;;;;6.36;100.00;103789.69;5108998;28;20472;-90
2021/12/17 01:45:04;;;;;;;106.68;41.17;;;;;;;6.31;100.00;103786.97;5092742;28;20036;-89
2021/12/17 01:47:29;;;;;;;108.30;41.88;;;;;;;6.34;100.00;103788.75;5088296;28;20086;-90
2021/12/17 01:55:50;;;;;;;;;;;;;;;6.39;100.00;103781.75;5111047;28;20081;-90
2021/12/17 02:01:00;;;;;;;102.47;37.55;;;;;;;6.35;100.00;103790.53;5091098;28;20067;-90
2021/12/17 02:03:26;;;;;;;103.82;39.42;;;;;;;6.33;100.00;103790.53;5106992;28;20067;-90
2021/12/17 02:05:51;;;;;;;102.70;39.05;;;;;;;6.34;100.00;103789.66;5108827;28;20488;-89
2021/12/17 02:08:17;;;;;;;112.80;39.75;;;;;;;6.33;100.00;103787.88;5091768;28;20024;-90
2021/12/17 02:21:48;;;;;;;;;;;;;;;6.37;100.00;103779.13;5112213;28;20038;-90
2021/12/17 02:32:08;;;;;;;111.88;38.63;;;;;;;6.28;100.00;103792.22;5091186;28;20366;-90
2021/12/17 02:37:24;;;;;;;117.80;38.35;;;;;;;6.28;100.00;103792.22;5112036;28;20032;-90
2021/12/17 02:42:20;;;;;;;116.70;38.80;;;;;;;6.27;100.00;103792.19;5092575;28;20040;-90
2021/12/17 02:45:32;;;;;;;115.35;36.88;;;;;;;6.26;100.00;103801.88;5091016;28;20059;-90
2021/12/17 02:45:41;;;;;;;118.57;39.53;;;;;;;6.25;100.00;103802.75;5090077;28;20047;-90
2021/12/17 02:48:10;;;;;;;120.07;38.30;;;;;;;6.22;100.00;103806.22;5090923;28;20103;-90
2021/12/17 02:50:39;;;;;;;120.75;40.15;;;;;;;6.22;100.00;103805.34;5093742;28;20028;-89
2021/12/17 02:53:08;;;;;;;128.57;40.63;;;;;;;6.22;100.00;103802.69;5099034;28;20028;-89
2021/12/17 02:55:41;;;;;;;119.50;38.80;;;;;;;6.23;100.00;103805.38;5092744;28;20032;-89
2021/12/17 02:58:07;;;;;;;119.45;39.72;;;;;;;6.23;100.00;103808.03;5103557;28;20495;-89
2021/12/17 03:00:34;;;;;;;126.68;39.45;;;;;;;6.22;100.00;103798.28;5090504;28;20030;-89
2021/12/17 03:03:03;;;;;;;134.30;43.45;;;;;;;6.17;100.00;103794.69;5105022;28;20514;-89
2021/12/17 03:05:29;;;;;;;129.40;39.72;;;;;;;6.21;100.00;103799.16;5111047;28;20035;-89
2021/12/17 03:07:55;;;;;;;127.68;39.10;;;;;;;6.20;100.00;103797.38;5110774;28;20020;-89
2021/12/17 03:10:20;;;;;;;132.95;41.53;;;;;;;6.17;100.00;103796.44;5111169;28;20023;-89
2021/12/17 03:12:57;;;;;;;127.25;40.40;;;;;;;6.15;100.00;103796.44;5107756;28;20046;-89
2021/12/17 03:15:51;;;;;;;130.00;39.17;;;;;;;6.20;100.00;103809.72;5110523;28;20069;-89
2021/12/17 03:23:30;;;;;;;121.57;39.20;;;;;;;6.18;100.00;103798.22;5111063;28;20451;-89
2021/12/17 03:25:59;;;;;;;136.85;39.00;;;;;;;6.19;100.00;103800.91;5110156;28;20023;-89
2021/12/17 03:28:25;;;;;;;134.02;40.13;;;;;;;6.19;100.00;103815.91;5110556;28;20030;-89
2021/12/17 03:30:50;;;;;;;138.88;39.50;;;;;;;6.16;100.00;103810.56;5109589;28;20019;-88
2021/12/17 03:33:15;;;;;;;136.80;40.88;;;;;;;6.18;100.00;103808.81;5117427;28;20039;-90
2021/12/17 03:35:41;;;;;;;128.40;37.58;;;;;;;6.13;100.00;103805.22;5108856;28;20023;-90
2021/12/17 03:38:06;;;;;;;137.82;38.85;;;;;;;6.15;100.00;103814.06;5110297;28;20036;-91
2021/12/17 03:40:33;;;;;;;125.13;36.90;;;;;;;6.12;100.00;103808.72;5091598;28;20030;-90
2021/12/17 03:43:11;;;;;;;123.25;35.40;;;;;;;6.10;100.00;103807.78;5110188;28;20027;-90
2021/12/17 03:45:38;;;;;;;129.02;36.10;;;;;;;6.10;100.00;103808.69;5108767;28;20078;-90
2021/12/17 03:48:04;;;;;;;129.23;35.28;;;;;;;6.08;100.00;103802.50;5109855;28;20100;-90
2021/12/17 03:50:33;;;;;;;129.73;35.33;;;;;;;6.02;100.00;103790.94;5110673;28;20452;-90
2021/12/17 03:52:58;;;;;;;124.22;33.50;;;;;;;6.04;100.00;103805.97;5107190;28;20034;-90
2021/12/17 03:55:23;;;;;;;123.03;34.38;;;;;;;6.03;100.00;103801.53;5109988;28;20036;-89
2021/12/17 03:57:49;;;;;;;126.28;34.47;;;;;;;6.03;100.00;103798.00;5108634;28;20472;-90
2021/12/17 04:00:14;;;;;;;127.68;34.42;;;;;;;6.06;100.00;103795.41;5110884;28;20036;-90
2021/12/17 04:02:39;;;;;;;123.57;33.70;;;;;;;6.07;100.00;103799.84;5105803;28;20047;-90
2021/12/17 04:05:05;;;;;;;121.95;33.47;;;;;;;6.07;100.00;103805.13;5109260;28;20392;-90
2021/12/17 04:07:31;;;;;;;123.18;33.63;;;;;;;6.07;100.00;103806.03;5091605;28;20076;-89
2021/12/17 04:09:56;;;;;;;129.95;35.00;;;;;;;6.07;100.00;103810.41;5103712;28;20032;-89
2021/12/17 04:12:29;;;;;;;113.82;32.00;;;;;;;6.07;100.00;103799.84;5089475;28;20465;-90
2021/12/17 04:14:55;;;;;;;117.72;31.90;;;;;;;6.04;100.00;103797.16;5088831;28;20024;-89
2021/12/17 04:17:24;;;;;;;109.88;31.98;;;;;;;6.05;100.00;103799.78;5089352;28;20528;-89
2021/12/17 04:19:50;;;;;;;119.30;32.40;;;;;;;6.04;100.00;103794.50;5091510;28;20023;-89
2021/12/17 04:22:15;;;;;;;121.57;32.78;;;;;;;6.05;100.00;103797.16;5104365;28;20023;-89
2021/12/17 04:24:40;;;;;;;125.80;33.75;;;;;;;6.03;100.00;103803.31;5109210;28;20273;-89
2021/12/17 04:27:07;;;;;;;119.82;33.03;;;;;;;6.02;100.00;103794.50;5104343;28;20023;-90
2021/12/17 04:29:33;;;;;;;121.18;32.13;;;;;;;6.00;100.00;103782.97;5105002;28;20035;-89
2021/12/17 04:31:59;;;;;;;113.10;32.00;;;;;;;6.01;100.00;103783.88;5087521;28;20030;-89
2021/12/17 04:34:25;;;;;;;130.27;34.35;;;;;;;5.99;100.00;103782.09;5104785;28;20028;-90
2021/12/17 04:36:53;;;;;;;128.15;33.47;;;;;;;6.03;100.00;103793.63;5100386;28;20027;-90
2021/12/17 04:39:21;;;;;;;124.75;34.33;;;;;;;6.04;100.00;103789.22;5088285;28;20016;-89
2021/12/17 04:57:32;;;;;;;141.77;36.58;;;;;;;6.06;100.00;103792.75;5099381;28;20123;-90
2021/12/17 05:00:03;;;;;;;135.98;35.80;;;;;;;6.04;100.00;103786.56;5074652;28;20419;-89
2021/12/17 05:02:31;;;;;;;134.90;34.40;;;;;;;6.07;100.00;103797.19;5088802;28;20396;-89
2021/12/17 05:04:56;;;;;;;136.52;34.25;;;;;;;5.98;100.00;103780.31;5087492;28;20036;-90
2021/12/17 05:07:23;;;;;;;135.20;32.90;;;;;;;6.03;100.00;103788.31;5089589;28;20119;-90
2021/12/17 05:10:02;;;;;;;136.07;33.03;;;;;;;6.01;100.00;103778.59;5100112;28;20070;-90
2021/12/17 05:20:47;;;;;;;115.85;30.00;;;;;;;6.11;100.00;103802.56;5108526;28;20325;-90
2021/12/17 05:23:12;;;;;;;119.72;32.42;;;;;;;6.08;100.00;103794.56;5109435;28;20076;-90
2021/12/17 05:25:38;;;;;;;117.93;30.50;;;;;;;6.10;100.00;103805.16;5108686;28;20032;-90
2021/12/17 05:28:03;;;;;;;102.70;28.73;;;;;;;6.06;100.00;103796.31;5111372;28;20031;-90
2021/12/17 05:30:30;;;;;;;111.95;28.80;;;;;;;6.09;100.00;103804.28;5109476;28;20019;-91
2021/12/17 05:32:56;;;;;;;108.68;27.60;;;;;;;6.09;100.00;103803.38;5091543;28;20864;-90
2021/12/17 05:35:21;;;;;;;105.35;27.38;;;;;;;6.11;100.00;103812.25;5088084;28;20364;-90
2021/12/17 05:37:46;;;;;;;97.10;25.90;;;;;;;6.09;100.00;103811.31;5089136;28;20032;-88
2021/12/17 05:40:12;;;;;;;97.55;25.17;;;;;;;6.09;100.00;103811.31;5086548;28;20020;-88
2021/12/17 05:42:39;;;;;;;98.47;25.38;;;;;;;6.08;100.00;103810.44;5087795;28;20054;-88
2021/12/17 05:45:10;;;;;;;99.32;25.00;;;;;;;6.06;100.00;103805.97;5085912;28;20042;-88
2021/12/17 05:47:35;;;;;;;92.68;24.70;;;;;;;6.10;100.00;103802.50;5100438;28;20066;-88
2021/12/17 05:50:01;;;;;;;81.03;22.45;;;;;;;6.11;100.00;103796.38;5087237;28;20032;-88
2021/12/17 05:52:26;;;;;;;89.20;21.88;;;;;;;6.11;100.00;103801.66;5087604;28;20034;-88
2021/12/17 05:54:51;;;;;;;78.57;22.08;;;;;;;6.12;100.00;103795.50;5103018;28;20069;-89
2021/12/17 05:57:17;;;;;;;79.57;22.38;;;;;;;6.12;100.00;103804.31;5088267;28;20035;-89
2021/12/17 05:59:42;;;;;;;79.45;20.67;;;;;;;6.13;100.00;103803.44;5101000;28;20106;-88
2021/12/17 06:02:11;;;;;;;80.40;21.55;;;;;;;6.10;100.00;103806.03;5097873;28;20047;-89
2021/12/17 06:04:37;;;;;;;74.53;20.92;;;;;;;6.10;100.00;103803.41;5108073;28;20023;-89
2021/12/17 06:07:03;;;;;;;85.13;21.42;;;;;;;6.13;100.00;103814.03;5105167;28;20034;-89
2021/12/17 06:09:28;;;;;;;77.10;21.30;;;;;;;6.14;100.00;103804.34;5108520;28;20376;-89
2021/12/17 06:11:54;;;;;;;70.55;20.38;;;;;;;6.12;100.00;103809.63;5107953;28;20035;-88
2021/12/17 06:14:19;;;;;;;73.55;19.25;;;;;;;6.12;100.00;103806.09;5107866;28;20028;-88
2021/12/17 06:16:44;;;;;;;78.93;21.17;;;;;;;6.14;100.00;103812.25;5106375;28;20051;-88
2021/12/17 06:19:10;;;;;;;75.93;20.33;;;;;;;6.12;100.00;103812.25;5105340;28;20167;-89
2021/12/17 06:21:35;;;;;;;67.85;17.92;;;;;;;6.09;100.00;103806.03;5099709;28;20103;-89
2021/12/17 06:24:00;;;;;;;70.72;19.13;;;;;;;6.12;100.00;103814.91;5086794;28;20068;-88
2021/12/17 06:26:26;;;;;;;70.13;19.45;;;;;;;6.08;100.00;103818.38;5099732;28;20244;-89
2021/12/17 06:28:51;;;;;;;68.90;19.17;;;;;;;6.10;100.00;103816.63;5104139;28;20024;-88
2021/12/17 06:31:18;;;;;;;63.38;19.45;;;;;;;6.13;100.00;103824.59;5093263;28;20498;-89
2021/12/17 06:33:44;;;;;;;66.63;18.52;;;;;;;6.14;100.00;103820.19;5087136;28;20032;-89
2021/12/17 06:36:09;;;;;;;66.68;18.15;;;;;;;6.14;100.00;103836.97;5100185;28;20431;-90
2021/12/17 06:38:34;;;;;;;66.70;19.13;;;;;;;6.14;100.00;103825.50;5105604;28;20425;-89
2021/12/17 06:41:00;;;;;;;69.30;18.10;;;;;;;6.11;100.00;103825.47;5090667;28;20024;-90
2021/12/17 06:43:32;;;;;;;64.80;17.10;;;;;;;6.09;100.00;103816.59;5090682;28;20498;-90
2021/12/17 06:46:14;;;;;;;66.73;18.33;;;;;;;6.07;100.00;103813.94;5105094;28;20042;-89
2021/12/17 06:48:40;;;;;;;59.78;17.02;;;;;;;6.09;100.00;103814.84;5111307;28;20024;-89
2021/12/17 06:59:09;;;;;;;51.15;15.55;;;;;;;6.10;100.00;103821.03;5110938;28;20167;-90
2021/12/17 07:17:48;;;;;;;63.20;18.48;;;;;;;6.11;100.00;103836.94;5032905;28;20032;-87
2021/12/17 07:23:14;;;;;;;64.43;17.63;;;;;;;6.09;100.00;103832.47;5035196;28;20083;-91
2021/12/17 07:33:43;;;;;;;57.92;17.35;;;;;;;6.11;100.00;103829.00;5029369;28;19913;-89
2021/12/17 07:36:12;;;;;;;61.63;16.25;;;;;;;6.12;100.00;103830.75;5032079;28;20565;-90
2021/12/17 07:38:39;;;;;;;56.75;16.83;;;;;;;6.12;100.00;103827.25;5018207;28;20450;-88
2021/12/17 07:41:07;;;;;;;60.88;17.42;;;;;;;6.09;100.00;103809.56;5034127;28;20459;-88
2021/12/17 07:43:38;;;;;;;55.23;16.87;;;;;;;6.10;100.00;103810.44;5036088;28;20100;-87
2021/12/17 07:46:09;;;;;;;62.17;17.83;;;;;;;6.13;100.00;103818.44;5034553;28;20090;-88
2021/12/17 07:48:35;;;;;;;60.75;18.00;;;;;;;6.14;100.00;103817.56;5090953;28;20038;-89
2021/12/17 07:51:02;;;;;;;62.78;18.50;;;;;;;6.14;100.00;103817.56;5104898;28;20106;-86
2021/12/17 07:53:29;;;;;;;58.88;17.45;;;;;;;6.13;100.00;103821.06;5101900;28;20023;-87
2021/12/17 07:55:55;;;;;;;62.75;19.48;;;;;;;6.11;100.00;103813.13;5101104;28;20066;-86
2021/12/17 07:58:20;;;;;;;60.95;17.75;;;;;;;6.16;100.00;103823.78;5102294;28;20035;-86
2021/12/17 08:00:46;;;;;;;59.03;17.40;;;;;;;6.16;100.00;103823.78;5101019;28;20027;-86
2021/12/17 08:03:14;;;;;;;52.72;18.20;;;;;;;6.13;100.00;103821.06;5074287;28;20045;-86
2021/12/17 08:05:42;;;;;;;57.83;18.05;;;;;;;6.18;100.00;103822.91;5083545;28;20038;-86
2021/12/17 08:08:07;;;;;;;57.55;18.73;;;;;;;6.18;100.00;103814.09;5084649;28;20035;-87
2021/12/17 08:10:33;;;;;;;65.60;19.13;;;;;;;6.17;100.00;103812.31;5066091;28;20024;-87
2021/12/17 08:12:58;;;;;;;61.42;18.55;;;;;;;6.17;100.00;103823.78;5070712;28;20069;-86
2021/12/17 08:15:31;;;;;;;61.75;19.35;;;;;;;6.22;100.00;103824.75;5079100;28;20456;-87
2021/12/17 08:26:14;;;;;;;64.25;19.25;;;;;;;6.29;100.00;103832.78;5082256;28;20469;-87
2021/12/17 08:28:52;;;;;;;65.22;18.80;;;;;;;6.30;100.00;103829.25;5065424;28;20424;-87
2021/12/17 08:31:17;;;;;;;66.45;18.75;;;;;;;6.31;100.00;103836.31;5064931;28;20040;-86
2021/12/17 08:33:43;;;;;;;65.75;20.30;;;;;;;6.32;100.00;103832.84;5066261;28;20082;-85
2021/12/17 08:36:08;;;;;;;63.25;19.52;;;;;;;6.27;100.00;103835.41;5083521;28;20066;-86
2021/12/17 08:38:34;;;;;;;63.92;19.20;;;;;;;6.31;100.00;103834.59;5084479;28;20024;-86
2021/12/17 08:41:00;;;;;;;59.50;19.17;;;;;;;6.34;100.00;103847.84;5066286;28;20036;-85
2021/12/17 08:43:25;;;;;;;65.82;20.13;;;;;;;6.37;100.00;103847.91;5085008;28;20031;-86
2021/12/17 08:45:51;;;;;;;63.50;20.70;;;;;;;6.38;100.00;103841.72;5074801;28;20036;-87
2021/12/17 08:48:17;;;;;;;64.05;20.45;;;;;;;6.34;100.00;103831.09;5080006;28;20031;-87
2021/12/17 08:50:42;;;;;;;64.43;20.17;;;;;;;6.42;100.00;103847.97;5084992;28;20024;-86
2021/12/17 08:53:08;;;;;;;69.45;20.55;;;;;;;6.42;100.00;103851.50;5084860;28;20036;-87
2021/12/17 08:55:33;;;;;;;70.32;19.88;;;;;;;6.43;100.00;103845.31;5083139;28;20056;-86
2021/12/17 08:57:58;;;;;;;65.10;18.73;;;;;;;6.45;100.00;103840.97;5073136;28;20032;-86
2021/12/17 09:00:23;;;;;;;75.07;21.15;;;;;;;6.47;100.00;103840.97;5074570;28;20051;-87
2021/12/17 09:02:50;;;;;;;66.30;20.30;;;;;;;6.48;100.00;103835.72;5075125;28;20564;-87
2021/12/17 09:05:15;;;;;;;68.38;20.40;;;;;;;6.50;100.00;103838.38;5074284;28;20219;-86
2021/12/17 09:07:41;;;;;;;66.82;19.73;;;;;;;6.52;100.00;103841.03;5078831;28;20028;-86
2021/12/17 09:10:07;;;;;;;68.55;19.38;;;;;;;6.53;100.00;103842.84;5084372;28;20111;-87
2021/12/17 09:12:33;;;;;;;58.20;19.25;;;;;;;6.56;100.00;103856.09;5085236;28;20035;-85
2021/12/17 09:14:58;;;;;;;67.70;21.17;;;;;;;6.55;100.00;103856.97;5080575;28;20033;-84
2021/12/17 09:17:24;;;;;;;64.45;20.40;;;;;;;6.59;100.00;103856.13;5084535;28;20055;-86
2021/12/17 09:19:50;;;;;;;62.78;19.77;;;;;;;6.61;100.00;103862.34;5085078;28;20252;-86
2021/12/17 09:22:15;;;;;;;63.80;19.85;;;;;;;6.62;100.00;103864.13;5058869;28;20082;-86
2021/12/17 09:24:41;;;;;;;69.05;21.08;;;;;;;6.64;100.00;103875.59;5080514;28;20040;-86
2021/12/17 09:27:06;;;;;;;69.18;20.33;;;;;;;6.64;100.00;103876.50;5084098;28;20028;-86
2021/12/17 09:29:31;;;;;;;63.40;21.02;;;;;;;6.67;100.00;103883.59;5079795;28;20024;-86
2021/12/17 09:31:56;;;;;;;64.88;20.88;;;;;;;6.63;100.00;103880.00;5079288;28;20453;-86
2021/12/17 09:34:22;;;;;;;63.28;21.25;;;;;;;6.65;100.00;103886.25;5078156;28;20348;-86
2021/12/17 09:36:48;;;;;;;62.13;21.17;;;;;;;6.63;100.00;103877.38;5065832;28;20145;-86
2021/12/17 09:39:13;;;;;;;58.25;20.08;;;;;;;6.63;100.00;103884.44;5078527;28;20119;-86
2021/12/17 09:41:43;;;;;;;65.35;20.60;;;;;;;6.63;100.00;103887.06;5078799;28;20388;-86
2021/12/17 09:44:13;;;;;;;62.97;20.55;;;;;;;6.67;100.00;103888.91;5077810;28;20036;-87
2021/12/17 09:46:41;;;;;;;57.95;19.77;;;;;;;6.65;100.00;103890.66;5080964;28;20036;-87
2021/12/17 09:49:07;;;;;;;48.60;18.40;;;;;;;6.67;100.00;103895.06;5080388;28;20078;-86
2021/12/17 09:51:32;;;;;;;52.90;18.02;;;;;;;6.67;100.00;103888.91;5072609;28;20099;-88
2021/12/17 09:53:59;;;;;;;57.22;18.77;;;;;;;6.68;100.00;103902.13;5082851;28;20056;-88
2021/12/17 09:56:27;;;;;;;53.80;18.30;;;;;;;6.67;100.00;103884.47;5079064;28;20039;-85
2021/12/17 09:58:52;;;;;;;54.10;18.73;;;;;;;6.74;100.00;103901.34;5083946;28;20028;-87
2021/12/17 10:01:18;;;;;;;51.35;18.63;;;;;;;6.74;100.00;103901.34;5083913;28;20822;-89
2021/12/17 10:03:43;;;;;;;40.63;16.40;;;;;;;6.74;100.00;103899.59;5087212;28;20027;-86
2021/12/17 10:06:22;;;;;;;51.33;18.80;;;;;;;6.80;100.00;103896.13;5108678;28;20451;-84
2021/12/17 10:08:48;;;;;;;45.92;16.80;;;;;;;6.79;100.00;103898.78;5105605;27;20031;-87
2021/12/17 10:11:16;;;;;;;47.08;16.25;;;;;;;6.80;100.00;103901.44;5097523;28;20031;-85
2021/12/17 10:13:42;;;;;;;48.38;15.63;;;;;;;6.84;100.00;103897.06;5087392;28;20054;-87
2021/12/17 10:16:10;;;;;;;43.38;15.40;;;;;;;6.89;100.00;103908.59;5103594;28;20028;-85
2021/12/17 10:18:38;;;;;;;40.65;15.45;;;;;;;6.91;100.00;103909.53;5108138;28;20031;-87
2021/12/17 10:21:09;;;;;;;38.80;16.30;;;;;;;6.91;100.00;103912.19;5088926;28;20031;-87
2021/12/17 10:23:35;;;;;;;43.97;15.20;;;;;;;6.93;100.00;103905.13;5102469;27;20080;-86
2021/12/17 10:26:01;;;;;;;41.47;15.02;;;;;;;6.95;100.00;103904.28;5095605;27;20127;-87
2021/12/17 10:28:27;;;;;;;45.38;14.70;;;;;;;6.93;100.00;103910.41;5095253;28;20114;-88
2021/12/17 10:30:55;;;;;;;38.28;14.93;;;;;;;6.96;100.00;103916.66;5090756;28;20028;-87
2021/12/17 10:33:24;;;;;;;42.88;15.88;;;;;;;6.95;100.00;103920.19;5087657;28;20040;-87
2021/12/17 10:35:51;;;;;;;42.97;15.77;;;;;;;6.93;100.00;103902.47;5091916;28;20032;-87
2021/12/17 10:38:23;;;;;;;37.05;14.20;;;;;;;6.90;100.00;103902.47;5116475;27;20100;-88
2021/12/17 10:43:28;;;;;;;41.17;14.57;;;;;;;6.98;100.00;103909.63;5105578;28;20035;-89
2021/12/17 10:46:09;;;;;;;42.75;15.18;;;;;;;6.95;100.00;103904.28;5096218;28;20109;-87
2021/12/17 10:51:31;;;;;;;35.90;14.85;;;;;;;7.01;100.00;103921.13;5128560;27;20058;-87
2021/12/17 10:54:04;;;;;;;48.42;14.90;;;;;;;7.02;100.00;103923.78;5113705;27;20380;-87
2021/12/17 10:56:32;;;;;;;39.20;14.95;;;;;;;7.03;100.00;103922.94;5100424;28;20036;-87
2021/12/17 10:59:04;;;;;;;38.67;14.35;;;;;;;7.07;100.00;103918.56;5094905;28;20016;-87
2021/12/17 11:01:41;;;;;;;40.03;14.70;;;;;;;7.09;100.00;103919.47;5103193;28;20039;-94
2021/12/17 11:04:31;;;;;;;36.35;13.27;;;;;;;7.12;100.00;103919.50;5100023;28;20020;-86
2021/12/17 11:07:10;;;;;;;40.55;14.75;;;;;;;7.15;100.00;103919.56;5094187;27;20043;-86
2021/12/17 11:09:41;;;;;;;36.13;13.45;;;;;;;7.15;100.00;103915.16;5105430;27;20092;-85
2021/12/17 11:12:26;;;;;;;36.85;13.48;;;;;;;7.17;100.00;103910.75;5102709;27;20027;-89
2021/12/17 11:14:52;;;;;;;40.90;14.40;;;;;;;7.11;100.00;103907.16;5093315;27;20036;-85
2021/12/17 11:17:21;;;;;;;43.83;14.50;;;;;;;7.14;100.00;103913.34;5104248;28;20038;-85
2021/12/17 11:19:50;;;;;;;37.80;13.60;;;;;;;7.12;100.00;103911.56;5120211;27;20032;-85
2021/12/17 11:22:17;;;;;;;39.03;14.27;;;;;;;7.16;100.00;103911.63;5101516;27;20027;-84
2021/12/17 11:24:43;;;;;;;37.70;13.50;;;;;;;7.16;100.00;103918.69;5107385;27;20278;-86
2021/12/17 11:27:08;;;;;;;39.22;14.05;;;;;;;7.16;100.00;103902.78;5090210;28;20028;-86
2021/12/17 11:29:34;;;;;;;38.70;14.20;;;;;;;7.19;100.00;103898.41;5107492;28;20027;-85
2021/12/17 11:32:02;;;;;;;40.85;13.93;;;;;;;7.18;100.00;103899.25;5104406;28;20032;-85
2021/12/17 11:34:30;;;;;;;40.65;14.75;;;;;;;7.19;100.00;103884.25;5089014;28;20040;-84
2021/12/17 11:36:56;;;;;;;38.40;13.25;;;;;;;7.19;100.00;103885.19;5091815;28;20023;-86
2021/12/17 11:39:28;;;;;;;36.47;14.13;;;;;;;7.23;100.00;103891.38;5106948;28;20057;-86
2021/12/17 11:42:24;;;;;;;40.00;13.82;;;;;;;7.27;100.00;103889.66;5102959;28;20480;-89
2021/12/17 11:45:22;;;;;;;38.45;14.18;;;;;;;7.24;100.00;103880.81;5101910;27;20383;-88
2021/12/17 11:47:37;;;;;;;38.85;13.80;;;;;;;7.22;100.00;103876.34;5102410;27;20375;-88
2021/12/17 11:50:05;;;;;;;41.45;13.95;;;;;;;7.21;100.00;103871.94;5102819;28;20087;-87
2021/12/17 11:52:52;;;;;;;41.85;15.35;;;;;;;7.25;100.00;103868.44;5099435;28;20591;-88
2021/12/17 11:55:20;;;;;;;40.75;15.25;;;;;;;7.28;100.00;103864.97;5096991;28;20075;-89
2021/12/17 11:57:45;;;;;;;42.47;14.98;;;;;;;7.30;100.00;103861.44;5102904;28;20506;-87
2021/12/17 12:00:23;;;;;;;32.47;13.93;;;;;;;7.35;100.00;103865.00;5096645;28;20064;-87
2021/12/17 12:02:50;;;;;;;33.75;14.32;;;;;;;7.35;100.00;103867.66;5095663;28;20048;-90
2021/12/17 12:05:36;;;;;;;36.22;13.60;;;;;;;7.34;100.00;103868.53;5097838;28;20039;-89
2021/12/17 12:08:25;;;;;;;33.80;13.10;;;;;;;7.41;100.00;103877.47;5103382;28;20044;-90
2021/12/17 12:11:05;;;;;;;35.17;13.23;;;;;;;7.40;100.00;103873.94;5107882;28;20027;-88
2021/12/17 12:13:45;;;;;;;34.72;13.55;;;;;;;7.37;100.00;103873.00;5092128;28;20043;-88
2021/12/17 12:16:16;;;;;;;36.33;15.10;;;;;;;7.32;100.00;103870.31;5091921;28;20028;-88
2021/12/17 12:18:47;;;;;;;35.05;13.15;;;;;;;7.35;100.00;103885.31;5085083;28;20077;-87
2021/12/17 12:21:18;;;;;;;37.85;14.82;;;;;;;7.29;100.00;103875.56;5086088;28;20541;-88
2021/12/17 12:23:46;;;;;;;32.38;13.50;;;;;;;7.24;100.00;103867.56;5086254;28;20115;-87
2021/12/17 12:26:16;;;;;;;34.75;13.75;;;;;;;7.32;100.00;103886.19;5102377;27;20082;-88
2021/12/17 12:28:47;;;;;;;33.25;12.52;;;;;;;7.29;100.00;103878.22;5106401;27;20035;-87
2021/12/17 12:31:25;;;;;;;32.17;12.45;;;;;;;7.31;100.00;103878.22;5102427;27;20053;-88
2021/12/17 12:34:13;;;;;;;29.50;11.88;;;;;;;7.28;100.00;103878.22;5088682;28;20024;-89
2021/12/17 12:37:06;;;;;;;30.75;12.52;;;;;;;7.33;100.00;103872.06;5077011;28;20080;-88
2021/12/17 12:39:48;;;;;;;30.20;12.57;;;;;;;7.42;100.00;103868.63;5096744;27;20628;-90
2021/12/17 12:42:22;;;;;;;28.98;12.80;;;;;;;7.39;100.00;103866.81;5113486;27;20035;-88
2021/12/17 12:44:48;;;;;;;29.20;11.88;;;;;;;7.45;100.00;103872.22;5088203;28;20527;-88
2021/12/17 12:47:34;;;;;;;34.50;13.98;;;;;;;7.46;100.00;103873.09;5098799;27;20489;-89
2021/12/17 12:50:03;;;;;;;29.38;12.02;;;;;;;7.47;100.00;103858.97;5104773;28;20476;-86
2021/12/17 12:52:28;;;;;;;25.88;11.75;;;;;;;7.48;100.00;103860.72;5091621;28;20024;-88
2021/12/17 12:54:57;;;;;;;35.15;13.93;;;;;;;7.47;100.00;103857.19;5100257;27;20076;-88
2021/12/17 12:57:28;;;;;;;31.88;13.50;;;;;;;7.49;100.00;103858.13;5089528;28;20027;-87
2021/12/17 12:59:57;;;;;;;26.95;13.40;;;;;;;7.47;100.00;103859.84;5088091;28;20441;-90
2021/12/17 13:02:25;;;;;;;29.15;14.60;;;;;;;7.43;100.00;103865.97;5104264;28;20463;-90
2021/12/17 13:04:53;;;;;;;28.05;13.65;;;;;;;7.36;100.00;103857.97;5090380;28;20035;-90
2021/12/17 13:07:30;;;;;;;30.45;14.02;;;;;;;7.36;100.00;103858.88;5104952;28;20384;-90
2021/12/17 13:09:56;;;;;;;30.25;14.38;;;;;;;7.35;100.00;103856.19;5098514;28;20028;-88
2021/12/17 13:12:25;;;;;;;28.98;13.70;;;;;;;7.39;100.00;103864.19;5091568;28;20028;-89
2021/12/17 13:14:55;;;;;;;30.30;13.68;;;;;;;7.29;100.00;103853.47;5090324;28;20020;-90
2021/12/17 13:20:42;;;;;;;24.17;12.63;;;;;;;7.33;100.00;103861.47;5096637;28;20838;-88
2021/12/17 13:23:18;;;;;;;22.38;11.20;;;;;;;7.29;100.00;103861.44;5086653;28;20028;-87
2021/12/17 13:25:43;;;;;;;25.73;12.10;;;;;;;7.28;100.00;103859.66;5089966;28;20480;-87
2021/12/17 13:28:09;;;;;;;22.95;11.70;;;;;;;7.30;100.00;103865.84;5085007;28;20039;-88
2021/12/17 13:30:34;;;;;;;19.80;10.63;;;;;;;7.30;100.00;103858.78;5107761;27;20020;-87
2021/12/17 13:33:00;;;;;;;19.25;10.50;;;;;;;7.29;100.00;103859.66;5094731;28;20027;-88
2021/12/17 13:35:27;;;;;;;20.15;10.80;;;;;;;7.30;100.00;103856.13;5099048;28;20032;-88
2021/12/17 13:37:59;;;;;;;18.23;9.98;;;;;;;7.29;100.00;103861.44;5086322;28;20032;-88
2021/12/17 13:40:26;;;;;;;19.58;9.70;;;;;;;7.25;100.00;103847.25;5105410;28;20023;-88
2021/12/17 13:42:51;;;;;;;16.60;9.77;;;;;;;7.24;100.00;103845.47;5085749;28;20512;-88
2021/12/17 13:45:20;;;;;;;18.38;9.70;;;;;;;7.29;100.00;103840.22;5105139;27;20031;-89
2021/12/17 13:47:54;;;;;;;17.08;9.65;;;;;;;7.26;100.00;103853.44;5099205;28;20023;-88
2021/12/17 13:50:28;;;;;;;17.13;10.05;;;;;;;7.23;100.00;103838.38;5074730;28;20023;-88
2021/12/17 13:52:55;;;;;;;17.35;9.60;;;;;;;7.20;100.00;103849.84;5115831;28;20036;-88
2021/12/17 13:55:25;;;;;;;16.02;9.18;;;;;;;7.19;100.00;103857.75;5066969;28;20054;-87
2021/12/17 13:57:51;;;;;;;17.00;8.82;;;;;;;7.13;100.00;103852.41;5084923;28;20489;-87
2021/12/17 14:00:23;;;;;;;14.38;9.05;;;;;;;7.08;100.00;103844.41;5084370;28;20079;-87
2021/12/17 14:02:50;;;;;;;16.60;9.15;;;;;;;7.09;100.00;103855.91;5096834;28;20607;-87